Time;durP1;ratioP1;P1;durP2;ratioP2;P2;SDS_P1;SDS_P2;PMS_P1;PMS_P2;Temp;Humidity;BMP_temperature;BMP_pressure;BME280_temperature;BME280_humidity;BME280_pressure;Samples;Min_cycle;Max_cycle;Signal;HPM_P1;HPM_P2
2023/11/16 00:00:51;;;;;;;10.60;8.50;;;;;;;8.26;100.00;99437.27;108270;1257;60399;-65
2023/11/16 00:03:20;;;;;;;10.80;7.60;;;;;;;8.25;100.00;99440.67;107647;1257;60151;-65
2023/11/16 00:05:48;;;;;;;10.90;8.70;;;;;;;8.25;100.00;99442.70;107608;1256;75087;-66
2023/11/16 00:08:16;;;;;;;12.30;8.20;;;;;;;8.23;100.00;99444.14;107703;1257;72527;-65
2023/11/16 00:10:44;;;;;;;10.80;7.90;;;;;;;8.24;100.00;99445.30;107710;1258;72726;-66
2023/11/16 00:13:11;;;;;;;9.70;7.70;;;;;;;8.44;100.00;99444.27;107698;1257;61211;-67
2023/11/16 00:15:40;;;;;;;10.90;7.30;;;;;;;8.76;100.00;99441.48;107724;1257;61031;-68
2023/11/16 00:18:09;;;;;;;9.40;8.10;;;;;;;8.83;100.00;99438.21;107824;1256;73395;-68
2023/11/16 00:20:37;;;;;;;10.70;7.80;;;;;;;8.86;100.00;99438.84;107836;1257;71297;-66
2023/11/16 00:23:07;;;;;;;10.40;7.60;;;;;;;8.88;100.00;99436.48;107808;1257;73803;-66
2023/11/16 00:25:37;;;;;;;9.90;7.40;;;;;;;8.90;100.00;99433.70;107804;1256;61692;-68
2023/11/16 00:28:07;;;;;;;10.30;7.80;;;;;;;8.90;100.00;99433.11;107753;1257;61253;-67
2023/11/16 00:30:35;;;;;;;11.60;7.60;;;;;;;9.04;100.00;99428.79;107743;1257;73384;-67
2023/11/16 00:33:02;;;;;;;11.10;7.50;;;;;;;9.09;100.00;99433.36;109029;1257;72624;-67
2023/11/16 00:35:30;;;;;;;10.40;8.10;;;;;;;8.92;100.00;99435.35;109013;1256;71475;-67
2023/11/16 00:37:58;;;;;;;10.80;7.50;;;;;;;8.87;100.00;99436.81;108997;1256;61690;-67
2023/11/16 00:40:32;;;;;;;8.10;6.70;;;;;;;8.88;100.00;99434.84;109087;1256;58875;-66
2023/11/16 00:43:11;;;;;;;9.20;6.60;;;;;;;8.90;100.00;99439.56;108968;1256;75562;-67
2023/11/16 00:45:39;;;;;;;10.90;7.90;;;;;;;8.91;100.00;99438.70;109103;1256;70796;-66
2023/11/16 00:48:08;;;;;;;9.20;7.20;;;;;;;8.92;100.00;99444.77;109028;1257;71055;-66
2023/11/16 00:50:36;;;;;;;11.20;7.20;;;;;;;8.92;100.00;99444.98;108994;1257;60707;-67
2023/11/16 00:53:05;;;;;;;9.10;7.20;;;;;;;8.92;100.00;99447.00;109102;1257;58882;-66
2023/11/16 00:55:32;;;;;;;9.90;7.60;;;;;;;8.91;100.00;99448.88;109034;1256;73782;-66
2023/11/16 00:58:01;;;;;;;9.80;7.40;;;;;;;8.91;100.00;99448.66;109052;1256;72532;-66
2023/11/16 01:00:31;;;;;;;9.50;7.20;;;;;;;8.93;100.00;99446.57;109055;1257;72472;-66
2023/11/16 01:02:59;;;;;;;9.90;7.00;;;;;;;8.94;100.00;99449.18;109008;1257;60715;-68
2023/11/16 01:05:28;;;;;;;9.90;7.50;;;;;;;8.93;100.00;99449.39;108979;1256;59065;-68
2023/11/16 01:07:56;;;;;;;11.00;6.90;;;;;;;8.94;100.00;99449.35;109104;1256;74690;-66
2023/11/16 01:10:29;;;;;;;9.40;7.00;;;;;;;8.93;100.00;99448.23;109048;1257;71572;-66
2023/11/16 01:12:58;;;;;;;7.80;6.10;;;;;;;8.92;100.00;99451.27;108947;1257;71641;-67
2023/11/16 01:15:28;;;;;;;10.70;7.50;;;;;;;8.91;100.00;99448.13;108972;1257;59639;-66
2023/11/16 01:17:59;;;;;;;9.30;7.10;;;;;;;8.92;100.00;99449.95;109011;1257;60940;-67
2023/11/16 01:20:34;;;;;;;;;;;;;;;8.92;100.00;99451.65;108939;1257;74764;-67
2023/11/16 01:23:12;;;;;;;10.50;7.40;;;;;;;8.90;100.00;99451.44;109089;1257;72728;-67
2023/11/16 01:25:51;;;;;;;10.10;7.60;;;;;;;8.88;100.00;99446.23;108946;1257;72662;-66
2023/11/16 01:28:20;;;;;;;12.50;7.60;;;;;;;8.88;100.00;99450.42;109060;1257;61892;-66
2023/11/16 01:43:07;;;;;;;9.80;7.10;;;;;;;9.26;100.00;99450.98;105652;1285;613857;-67
2023/11/16 01:45:35;;;;;;;10.50;7.10;;;;;;;9.29;100.00;99454.13;107066;1267;168435;-67
2023/11/16 01:48:06;;;;;;;9.70;7.00;;;;;;;9.24;100.00;99450.59;107251;1268;59405;-67
2023/11/16 01:50:35;;;;;;;;;;;;;;;9.20;100.00;99446.77;107295;1267;71433;-68
2023/11/16 01:53:06;;;;;;;9.60;6.70;;;;;;;9.18;100.00;99448.01;107262;1267;71282;-67
2023/11/16 01:55:34;;;;;;;10.20;6.80;;;;;;;9.18;100.00;99444.02;107455;1268;71404;-68
2023/11/16 01:58:05;;;;;;;7.30;6.10;;;;;;;9.19;100.00;99447.90;107297;1267;61139;-67
2023/11/16 02:00:33;;;;;;;9.70;6.50;;;;;;;9.16;100.00;99448.17;107288;1266;60059;-67
2023/11/16 02:03:05;;;;;;;10.20;6.80;;;;;;;9.15;100.00;99446.75;107250;1267;72147;-67
2023/11/16 02:05:34;;;;;;;8.70;6.30;;;;;;;9.16;100.00;99451.70;107279;1267;71859;-67
2023/11/16 02:08:04;;;;;;;9.00;6.40;;;;;;;9.12;100.00;99452.40;107270;1267;71137;-68
2023/11/16 02:10:31;;;;;;;7.60;6.00;;;;;;;8.72;100.00;99454.95;107190;1269;60459;-68
2023/11/16 02:12:59;;;;;;;8.00;6.40;;;;;;;8.63;100.00;99457.29;107192;1267;59583;-67
2023/11/16 02:15:31;;;;;;;8.10;6.20;;;;;;;8.73;100.00;99456.45;107266;1267;72036;-70
2023/11/16 02:17:59;;;;;;;9.10;6.40;;;;;;;9.07;100.00;99460.10;107361;1267;71659;-67
2023/11/16 02:20:29;;;;;;;7.40;5.80;;;;;;;9.12;100.00;99455.92;107737;1256;71414;-67
2023/11/16 02:23:02;;;;;;;8.20;6.00;;;;;;;9.13;100.00;99460.02;108041;1256;60452;-66
2023/11/16 02:25:29;;;;;;;8.00;6.50;;;;;;;9.12;100.00;99463.80;108006;1256;59500;-67
2023/11/16 02:27:57;;;;;;;6.80;5.80;;;;;;;9.12;100.00;99470.48;107950;1256;73155;-67
2023/11/16 02:30:26;;;;;;;7.90;5.70;;;;;;;9.12;100.00;99466.10;107897;1256;72392;-67
2023/11/16 02:32:53;;;;;;;8.60;6.50;;;;;;;9.12;100.00;99466.48;107692;1257;72473;-67
2023/11/16 02:35:22;;;;;;;7.00;5.50;;;;;;;9.11;100.00;99470.05;107808;1258;60426;-66
2023/11/16 02:37:50;;;;;;;6.90;5.20;;;;;;;9.09;100.00;99470.54;107871;1257;60106;-66
2023/11/16 02:40:17;;;;;;;8.20;6.10;;;;;;;9.10;100.00;99473.02;107883;1258;72430;-67
2023/11/16 02:42:47;;;;;;;9.00;6.30;;;;;;;9.11;100.00;99468.39;107763;1258;72041;-68
2023/11/16 02:45:16;;;;;;;7.90;5.80;;;;;;;9.11;100.00;99473.61;107812;1258;71421;-71
2023/11/16 02:47:46;;;;;;;7.20;5.80;;;;;;;9.11;100.00;99475.54;107641;1257;61313;-67
2023/11/16 02:50:16;;;;;;;7.10;5.40;;;;;;;9.12;100.00;99477.77;108133;1257;60147;-68
2023/11/16 02:52:44;;;;;;;8.50;5.50;;;;;;;9.13;100.00;99477.13;107871;1257;71803;-67
2023/11/16 02:55:11;;;;;;;9.10;6.00;;;;;;;9.14;100.00;99479.34;107680;1258;71988;-67
2023/11/16 02:57:39;;;;;;;8.60;5.90;;;;;;;9.14;100.00;99480.83;107709;1257;71154;-69
2023/11/16 03:00:12;;;;;;;6.90;5.20;;;;;;;9.05;100.00;99482.26;107676;1259;62075;-66
2023/11/16 03:02:40;;;;;;;8.00;5.50;;;;;;;8.70;100.00;99484.73;107874;1257;59649;-66
2023/11/16 03:05:12;;;;;;;9.40;6.00;;;;;;;8.64;100.00;99491.88;107665;1257;73024;-67
2023/11/16 03:07:40;;;;;;;10.20;6.30;;;;;;;8.61;100.00;99498.38;107804;1257;73167;-67
2023/11/16 03:10:08;;;;;;;6.80;5.10;;;;;;;8.88;100.00;99494.31;107706;1258;71826;-67
2023/11/16 03:12:36;;;;;;;7.70;5.70;;;;;;;9.12;100.00;99493.64;107752;1261;60511;-68
2023/11/16 03:15:05;;;;;;;6.90;5.20;;;;;;;9.18;100.00;99494.79;107791;1257;59586;-67
2023/11/16 03:17:33;;;;;;;7.40;5.20;;;;;;;9.21;100.00;99492.32;107891;1258;73176;-67
2023/11/16 03:20:00;;;;;;;8.40;5.50;;;;;;;9.22;100.00;99492.17;107760;1257;71660;-66
2023/11/16 03:22:29;;;;;;;7.80;5.50;;;;;;;9.23;100.00;99492.63;107702;1258;71528;-66
2023/11/16 03:24:56;;;;;;;7.10;5.30;;;;;;;9.24;100.00;99492.25;107805;1257;62656;-67
2023/11/16 03:27:24;;;;;;;7.70;5.50;;;;;;;9.18;100.00;99494.84;107912;1257;60048;-68
2023/11/16 03:29:52;;;;;;;8.50;5.00;;;;;;;9.23;100.00;99493.06;107699;1257;71751;-68
2023/11/16 03:32:26;;;;;;;7.40;5.00;;;;;;;9.24;100.00;99492.63;107648;1259;71611;-67
2023/11/16 03:34:53;;;;;;;10.00;5.10;;;;;;;9.25;100.00;99493.22;107788;1259;73163;-66
2023/11/16 03:37:21;;;;;;;6.20;4.60;;;;;;;9.25;100.00;99491.30;107850;1258;61968;-66
2023/11/16 03:39:48;;;;;;;7.40;4.60;;;;;;;9.27;100.00;99493.25;107769;1259;59541;-67
2023/11/16 03:42:16;;;;;;;6.90;5.00;;;;;;;9.27;100.00;99496.40;107694;1257;72208;-71
2023/11/16 03:44:44;;;;;;;7.30;4.60;;;;;;;9.25;100.00;99494.06;107696;1259;72526;-68
2023/11/16 03:47:11;;;;;;;7.90;4.70;;;;;;;9.24;100.00;99496.89;107681;1259;72687;-67
2023/11/16 03:49:39;;;;;;;6.50;4.70;;;;;;;9.24;100.00;99503.39;107705;1258;61778;-68
2023/11/16 03:52:06;;;;;;;5.90;4.30;;;;;;;9.21;100.00;99504.84;107821;1259;59574;-68
2023/11/16 03:54:34;;;;;;;6.70;4.60;;;;;;;9.21;100.00;99505.85;107697;1259;73097;-68
2023/11/16 03:57:02;;;;;;;5.70;4.50;;;;;;;9.19;100.00;99506.29;107696;1258;72435;-66
2023/11/16 03:59:30;;;;;;;5.70;4.20;;;;;;;9.16;100.00;99505.98;107688;1259;72749;-68
2023/11/16 04:01:57;;;;;;;6.30;4.50;;;;;;;9.15;100.00;99508.07;107764;1262;59787;-68
2023/11/16 04:04:25;;;;;;;6.20;4.60;;;;;;;9.14;100.00;99510.30;107813;1258;60371;-67
2023/11/16 04:06:53;;;;;;;7.40;4.70;;;;;;;9.14;100.00;99514.45;107760;1259;73159;-68
2023/11/16 04:09:23;;;;;;;7.50;5.60;;;;;;;9.11;100.00;99516.19;107889;1257;73381;-69
2023/11/16 04:11:53;;;;;;;6.50;4.90;;;;;;;9.08;100.00;99520.25;107780;1258;72001;-66
2023/11/16 04:14:21;;;;;;;7.50;5.50;;;;;;;9.06;100.00;99515.19;107928;1257;61833;-68
2023/11/16 04:16:54;;;;;;;7.20;5.30;;;;;;;9.05;100.00;99521.11;107780;1257;60033;-68
2023/11/16 04:19:22;;;;;;;7.50;5.70;;;;;;;9.03;100.00;99520.05;107701;1259;72089;-68
2023/11/16 04:21:50;;;;;;;8.40;5.90;;;;;;;9.01;100.00;99523.95;107741;1258;71945;-70
2023/11/16 04:24:21;;;;;;;8.10;5.60;;;;;;;9.00;100.00;99520.11;107738;1257;71537;-70
2023/11/16 04:26:50;;;;;;;9.50;6.10;;;;;;;9.00;100.00;99517.13;107727;1258;61705;-67
2023/11/16 04:29:18;;;;;;;7.20;5.70;;;;;;;8.99;100.00;99516.34;107871;1258;60157;-69
2023/11/16 04:31:49;;;;;;;7.00;5.50;;;;;;;8.96;100.00;99520.98;107849;1257;71761;-66
2023/11/16 04:34:17;;;;;;;6.90;5.60;;;;;;;8.92;100.00;99526.69;107569;1258;72771;-66
2023/11/16 04:36:44;;;;;;;8.10;6.30;;;;;;;8.88;100.00;99524.40;107831;1258;71455;-67
2023/11/16 04:39:12;;;;;;;7.30;5.90;;;;;;;8.87;100.00;99529.79;107699;1259;62751;-67
2023/11/16 04:41:41;;;;;;;7.60;6.00;;;;;;;8.83;100.00;99529.48;107824;1258;59430;-66
2023/11/16 04:44:09;;;;;;;9.00;6.70;;;;;;;8.81;100.00;99531.84;107789;1259;71256;-67
2023/11/16 04:46:36;;;;;;;8.60;6.50;;;;;;;8.80;100.00;99533.70;107810;1259;72703;-67
2023/11/16 04:49:06;;;;;;;8.20;6.50;;;;;;;8.78;100.00;99535.89;107759;1258;70914;-69
2023/11/16 04:51:34;;;;;;;8.60;6.20;;;;;;;8.79;100.00;99537.44;107725;1259;61917;-67
2023/11/16 04:54:02;;;;;;;8.30;6.10;;;;;;;8.79;100.00;99537.38;107934;1259;60049;-67
2023/11/16 04:56:30;;;;;;;8.30;6.10;;;;;;;8.79;100.00;99538.43;107785;1257;73080;-68
2023/11/16 04:58:58;;;;;;;7.80;6.10;;;;;;;8.79;100.00;99537.33;107757;1257;70679;-68
2023/11/16 05:01:25;;;;;;;7.70;6.00;;;;;;;8.79;100.00;99537.11;107735;1260;70586;-67
2023/11/16 05:03:53;;;;;;;7.70;6.30;;;;;;;8.78;100.00;99542.11;107727;1259;60552;-67
2023/11/16 05:06:21;;;;;;;7.50;5.70;;;;;;;8.79;100.00;99548.66;107786;1259;60019;-68
2023/11/16 05:08:48;;;;;;;7.70;6.20;;;;;;;8.79;100.00;99548.14;107809;1259;73348;-69
2023/11/16 05:11:23;;;;;;;7.70;6.00;;;;;;;8.81;100.00;99549.41;107861;1258;73000;-66
2023/11/16 05:13:50;;;;;;;7.40;5.80;;;;;;;8.82;100.00;99555.05;107903;1258;72717;-70
2023/11/16 05:16:18;;;;;;;6.90;5.30;;;;;;;8.84;100.00;99558.66;107850;1257;60854;-68
2023/11/16 05:18:46;;;;;;;6.00;4.70;;;;;;;8.86;100.00;99559.35;107752;1257;59611;-67
2023/11/16 05:21:14;;;;;;;8.00;4.80;;;;;;;8.88;100.00;99560.52;107709;1257;71841;-67
2023/11/16 05:23:45;;;;;;;6.20;4.70;;;;;;;8.91;100.00;99565.89;107738;1259;72135;-66
2023/11/16 05:26:12;;;;;;;5.50;4.40;;;;;;;8.94;100.00;99564.92;107800;1259;73194;-66
2023/11/16 05:28:40;;;;;;;5.30;3.70;;;;;;;8.92;100.00;99568.61;107663;1259;61661;-67
2023/11/16 05:31:08;;;;;;;4.80;2.80;;;;;;;8.89;100.00;99566.48;107670;1259;59068;-68
2023/11/16 05:33:36;;;;;;;5.90;3.50;;;;;;;8.87;100.00;99570.42;107684;1258;72166;-68
2023/11/16 05:36:06;;;;;;;6.20;3.50;;;;;;;8.83;100.00;99569.27;107743;1260;71792;-68
2023/11/16 05:38:33;;;;;;;5.30;3.10;;;;;;;8.80;100.00;99575.81;107743;1258;72793;-69
2023/11/16 05:41:02;;;;;;;4.20;2.90;;;;;;;8.77;100.00;99580.61;107707;1259;61680;-69
2023/11/16 05:43:30;;;;;;;4.80;3.20;;;;;;;8.73;100.00;99578.65;107904;1257;59079;-71
2023/11/16 05:45:57;;;;;;;4.10;2.60;;;;;;;8.68;100.00;99589.09;107778;1259;72087;-66
2023/11/16 05:48:25;;;;;;;4.90;2.80;;;;;;;8.66;100.00;99583.35;107771;1258;73053;-66
2023/11/16 05:50:53;;;;;;;4.10;2.40;;;;;;;8.63;100.00;99586.01;107854;1260;73242;-67
2023/11/16 05:53:21;;;;;;;3.80;2.70;;;;;;;8.62;100.00;99589.52;107762;1257;60435;-69
2023/11/16 05:55:48;;;;;;;4.00;2.20;;;;;;;8.61;100.00;99593.41;107764;1257;60075;-69
2023/11/16 05:58:17;;;;;;;3.80;2.60;;;;;;;8.59;100.00;99597.99;107874;1257;73975;-68
2023/11/16 06:00:44;;;;;;;3.20;2.20;;;;;;;8.56;99.10;99602.25;107882;1258;71492;-68
2023/11/16 06:03:15;;;;;;;3.50;1.90;;;;;;;8.52;97.40;99602.45;107852;1259;71845;-67
2023/11/16 06:05:42;;;;;;;3.40;1.90;;;;;;;8.48;95.77;99597.98;107687;1258;60962;-67
2023/11/16 06:08:10;;;;;;;5.30;1.90;;;;;;;8.42;94.26;99597.30;107765;1259;60352;-68
2023/11/16 06:10:37;;;;;;;3.10;1.90;;;;;;;8.38;93.30;99593.98;107797;1259;74342;-68
2023/11/16 06:13:06;;;;;;;3.20;1.70;;;;;;;8.34;92.08;99588.11;107788;1258;71573;-68
2023/11/16 06:15:35;;;;;;;3.60;1.60;;;;;;;8.30;90.08;99590.33;107867;1257;71218;-68
2023/11/16 06:18:04;;;;;;;3.20;1.60;;;;;;;8.27;88.85;99591.72;107859;1257;60641;-68
2023/11/16 06:20:31;;;;;;;2.60;1.60;;;;;;;8.24;88.34;99598.85;107830;1258;62151;-68
2023/11/16 06:23:02;;;;;;;2.10;1.40;;;;;;;8.21;87.12;99599.91;107606;1259;76209;-69
2023/11/16 06:25:30;;;;;;;2.30;1.40;;;;;;;8.18;86.86;99601.13;107803;1257;72793;-68
2023/11/16 06:27:58;;;;;;;2.20;1.40;;;;;;;8.18;86.89;99602.40;107727;1260;71563;-67
2023/11/16 06:30:26;;;;;;;2.40;1.40;;;;;;;8.18;86.94;99611.45;107620;1258;61717;-67
2023/11/16 06:32:54;;;;;;;3.40;1.90;;;;;;;8.15;86.67;99603.64;107641;1257;60300;-68
2023/11/16 06:35:22;;;;;;;2.80;1.50;;;;;;;8.12;86.63;99611.23;107582;1259;73955;-68
2023/11/16 06:37:50;;;;;;;2.70;1.50;;;;;;;8.12;86.75;99617.30;107657;1259;72401;-70
2023/11/16 06:40:18;;;;;;;2.90;1.60;;;;;;;8.12;86.59;99616.02;107730;1259;71421;-69
2023/11/16 06:42:47;;;;;;;4.20;1.60;;;;;;;8.11;86.19;99624.00;107754;1259;61652;-67
2023/11/16 06:45:15;;;;;;;2.90;1.40;;;;;;;8.09;85.82;99620.21;107743;1257;60483;-68
2023/11/16 06:47:42;;;;;;;3.10;1.20;;;;;;;8.08;85.02;99623.88;107777;1259;72814;-68
2023/11/16 06:50:12;;;;;;;2.00;1.30;;;;;;;8.06;84.44;99626.33;107727;1257;72940;-68
2023/11/16 06:52:43;;;;;;;2.10;1.20;;;;;;;8.05;84.06;99618.72;107729;1262;71431;-68
2023/11/16 06:55:14;;;;;;;3.10;1.30;;;;;;;8.04;83.79;99621.33;107722;1259;60777;-67
2023/11/16 06:57:43;;;;;;;2.80;1.20;;;;;;;8.02;82.95;99624.82;107727;1259;60219;-67
2023/11/16 07:00:15;;;;;;;1.80;0.90;;;;;;;8.01;82.30;99621.27;107681;1260;74197;-68
2023/11/16 07:02:45;;;;;;;2.00;1.10;;;;;;;8.02;81.77;99624.83;107792;1256;72745;-66
2023/11/16 07:05:19;;;;;;;2.70;1.00;;;;;;;8.05;81.68;99625.90;107816;1261;72679;-67
2023/11/16 07:07:51;;;;;;;2.40;1.20;;;;;;;8.10;81.73;99625.42;107695;1260;60474;-69
2023/11/16 07:10:19;;;;;;;;;;;;;;;8.16;81.86;99624.33;107797;1258;60222;-68
2023/11/16 07:12:47;;;;;;;1.40;0.90;;;;;;;8.19;81.29;99627.04;107667;1258;72581;-67
2023/11/16 07:15:17;;;;;;;1.70;1.00;;;;;;;8.17;80.34;99630.23;107643;1260;71542;-66
2023/11/16 07:17:53;;;;;;;1.90;1.00;;;;;;;8.19;80.19;99626.20;107628;1259;72660;-67
2023/11/16 07:20:26;;;;;;;2.00;0.80;;;;;;;8.19;78.99;99627.05;107737;1259;61768;-68
2023/11/16 07:22:59;;;;;;;1.60;0.80;;;;;;;8.20;78.40;99634.98;107649;1257;61904;-68
2023/11/16 07:25:30;;;;;;;1.00;0.90;;;;;;;8.19;77.59;99630.27;107772;1258;73904;-68
2023/11/16 07:28:07;;;;;;;2.30;0.70;;;;;;;8.19;77.12;99630.89;107799;1257;71002;-68
2023/11/16 07:30:54;;;;;;;1.00;0.60;;;;;;;8.19;76.50;99633.11;107774;1258;72209;-66
2023/11/16 07:33:41;;;;;;;1.40;0.50;;;;;;;8.19;76.57;99641.15;107804;1257;62292;-68
2023/11/16 07:36:11;;;;;;;2.20;0.60;;;;;;;8.19;75.85;99634.61;107680;1257;61635;-66
2023/11/16 07:38:52;;;;;;;0.70;0.50;;;;;;;8.16;75.30;99638.22;107595;1259;73906;-69
2023/11/16 07:41:35;;;;;;;0.70;0.40;;;;;;;8.08;74.36;99655.59;107710;1258;73897;-69
2023/11/16 07:44:05;;;;;;;1.40;0.70;;;;;;;7.98;74.20;99655.66;107717;1259;72829;-69
2023/11/16 07:46:33;;;;;;;1.30;0.70;;;;;;;7.91;74.50;99661.07;107762;1259;61695;-67
2023/11/16 07:49:01;;;;;;;1.40;0.50;;;;;;;7.88;74.89;99666.28;107775;1257;60334;-67
2023/11/16 07:51:28;;;;;;;1.40;0.60;;;;;;;7.82;75.39;99676.66;107729;1257;72586;-68
2023/11/16 07:53:57;;;;;;;1.60;0.70;;;;;;;7.77;76.05;99678.46;107795;1262;72826;-67
2023/11/16 07:56:25;;;;;;;1.80;1.00;;;;;;;7.70;77.15;99677.36;107683;1260;71389;-67
2023/11/16 07:58:52;;;;;;;4.00;1.20;;;;;;;7.67;78.32;99683.68;107641;1262;59606;-68
2023/11/16 08:01:29;;;;;;;2.00;0.90;;;;;;;7.59;79.60;99698.09;107770;1257;60313;-68
2023/11/16 08:03:57;;;;;;;3.40;1.60;;;;;;;7.54;80.90;99706.69;107681;1257;72622;-68
2023/11/16 08:06:28;;;;;;;5.90;1.70;;;;;;;7.51;81.71;99708.30;107807;1257;72604;-69
2023/11/16 08:08:58;;;;;;;4.90;1.30;;;;;;;7.48;82.08;99711.59;107677;1260;72669;-68
2023/11/16 08:11:25;;;;;;;3.70;1.40;;;;;;;7.46;82.04;99710.25;107604;1262;59407;-67
2023/11/16 08:13:53;;;;;;;2.70;1.30;;;;;;;7.44;82.08;99722.41;107700;1259;60312;-66
2023/11/16 08:16:21;;;;;;;1.90;0.70;;;;;;;7.43;81.68;99728.77;107663;1257;72632;-68
2023/11/16 08:18:49;;;;;;;1.80;0.90;;;;;;;7.39;80.34;99732.52;107716;1257;70283;-67
2023/11/16 08:21:16;;;;;;;1.90;1.00;;;;;;;7.34;79.73;99731.20;107826;1257;72787;-68
2023/11/16 08:23:45;;;;;;;2.30;0.80;;;;;;;7.30;78.96;99740.27;107700;1257;60444;-69
2023/11/16 08:26:19;;;;;;;0.90;0.60;;;;;;;7.22;77.34;99749.51;107860;1257;60411;-67
2023/11/16 08:28:48;;;;;;;1.10;0.60;;;;;;;7.16;76.65;99746.70;107671;1264;72581;-67
2023/11/16 08:31:16;;;;;;;1.70;0.90;;;;;;;7.11;75.85;99758.02;107704;1257;71797;-68
2023/11/16 08:33:44;;;;;;;1.50;0.60;;;;;;;7.03;74.80;99757.44;107749;1257;72715;-67
2023/11/16 08:36:15;;;;;;;1.90;0.80;;;;;;;6.97;74.45;99757.06;107722;1260;60335;-66
2023/11/16 08:38:45;;;;;;;2.80;1.10;;;;;;;6.94;74.20;99762.83;107823;1260;59039;-70
2023/11/16 08:41:17;;;;;;;2.80;1.00;;;;;;;6.93;73.98;99754.63;107686;1259;73994;-67
2023/11/16 08:43:47;;;;;;;2.60;0.90;;;;;;;6.92;73.98;99757.28;107679;1259;72922;-68
2023/11/16 08:46:20;;;;;;;0.90;0.60;;;;;;;6.91;74.18;99755.20;107724;1258;71354;-67
2023/11/16 08:48:50;;;;;;;2.10;0.70;;;;;;;6.91;73.67;99758.85;107884;1257;60337;-67
2023/11/16 08:51:21;;;;;;;1.90;0.80;;;;;;;6.91;73.46;99752.56;107741;1257;61326;-67
2023/11/16 08:53:55;;;;;;;2.20;0.80;;;;;;;6.92;73.08;99761.48;107764;1257;73330;-68
2023/11/16 08:56:26;;;;;;;2.70;1.00;;;;;;;6.87;72.59;99760.16;107764;1260;71138;-67
2023/11/16 08:59:09;;;;;;;1.20;0.60;;;;;;;6.84;72.58;99768.83;107733;1259;70983;-68
2023/11/16 09:01:37;;;;;;;1.90;0.80;;;;;;;6.82;72.61;99774.23;107874;1257;60421;-68
2023/11/16 09:04:09;;;;;;;2.60;0.70;;;;;;;6.78;72.58;99766.34;107687;1259;60336;-67
2023/11/16 09:06:37;;;;;;;0.60;0.40;;;;;;;6.76;72.67;99769.50;107674;1263;74128;-66
2023/11/16 09:09:35;;;;;;;1.70;0.70;;;;;;;6.72;72.90;99760.97;107683;1262;71163;-67
2023/11/16 09:12:03;;;;;;;2.80;0.80;;;;;;;6.71;73.15;99764.20;108004;1258;73030;-68
2023/11/16 09:14:34;;;;;;;1.30;0.70;;;;;;;6.73;73.39;99763.33;107732;1257;60420;-67
2023/11/16 09:17:05;;;;;;;1.70;0.80;;;;;;;6.76;73.26;99758.83;108704;1257;59979;-67
2023/11/16 09:19:40;;;;;;;1.40;0.60;;;;;;;6.75;72.85;99765.67;107797;1260;72651;-67
2023/11/16 09:22:09;;;;;;;1.70;0.90;;;;;;;6.72;72.49;99769.19;107794;1262;72569;-69
2023/11/16 09:24:39;;;;;;;2.00;1.00;;;;;;;6.70;72.55;99764.98;107758;1257;72824;-67
2023/11/16 09:27:09;;;;;;;2.80;0.60;;;;;;;6.69;72.24;99768.91;107719;1257;60925;-69
2023/11/16 09:29:38;;;;;;;1.00;0.60;;;;;;;6.63;72.15;99770.23;107730;1262;60149;-67
2023/11/16 09:32:10;;;;;;;1.40;0.60;;;;;;;6.58;71.87;99774.46;107691;1258;72869;-66
2023/11/16 09:34:39;;;;;;;2.40;0.90;;;;;;;6.56;71.98;99775.94;107736;1262;72751;-67
2023/11/16 09:37:08;;;;;;;2.80;0.80;;;;;;;6.55;71.75;99776.10;107691;1257;72867;-67
2023/11/16 09:39:36;;;;;;;2.50;0.80;;;;;;;6.54;71.87;99780.31;107762;1259;60335;-67
2023/11/16 09:42:05;;;;;;;3.10;1.20;;;;;;;6.55;72.04;99780.17;107596;1257;60310;-67
2023/11/16 09:44:33;;;;;;;1.50;0.80;;;;;;;6.55;71.77;99784.58;107690;1262;72080;-66
2023/11/16 09:47:02;;;;;;;3.00;0.80;;;;;;;6.53;71.71;99784.29;107735;1263;71514;-67
2023/11/16 09:49:31;;;;;;;1.70;0.80;;;;;;;6.53;72.26;99783.70;107662;1261;72671;-67
2023/11/16 09:51:59;;;;;;;2.40;0.60;;;;;;;6.52;72.53;99789.54;107843;1260;60333;-67
2023/11/16 09:54:27;;;;;;;2.60;0.90;;;;;;;6.51;72.48;99790.46;107604;1260;60463;-68
2023/11/16 09:57:00;;;;;;;3.10;1.00;;;;;;;6.45;71.75;99801.39;107571;1260;72701;-67
2023/11/16 09:59:37;;;;;;;3.40;1.10;;;;;;;6.32;70.88;99794.08;107739;1262;72058;-67
2023/11/16 10:02:10;;;;;;;1.40;0.70;;;;;;;6.22;70.91;99801.27;107631;1260;72709;-68
2023/11/16 10:04:45;;;;;;;1.90;0.80;;;;;;;6.19;71.39;99799.98;107603;1257;60441;-68
2023/11/16 10:07:15;;;;;;;1.40;0.70;;;;;;;6.19;71.39;99798.05;107743;1257;60296;-67
2023/11/16 10:09:44;;;;;;;1.60;0.60;;;;;;;6.20;71.30;99802.84;107718;1257;73910;-68
2023/11/16 10:12:12;;;;;;;1.60;0.70;;;;;;;6.21;71.10;99803.59;107758;1257;72953;-68
2023/11/16 10:14:40;;;;;;;0.70;0.60;;;;;;;6.19;71.06;99804.67;107748;1261;73167;-67
2023/11/16 10:17:08;;;;;;;1.10;0.80;;;;;;;6.17;70.81;99804.66;107687;1258;60973;-67
2023/11/16 10:19:35;;;;;;;1.70;0.90;;;;;;;6.13;71.12;99808.96;107777;1257;60378;-68
2023/11/16 10:22:05;;;;;;;1.10;0.70;;;;;;;6.15;71.50;99802.93;107719;1257;73140;-67
2023/11/16 10:24:35;;;;;;;;;;;;;;;6.19;72.48;99802.29;107755;1257;72851;-68
2023/11/16 10:27:03;;;;;;;1.00;0.70;;;;;;;6.22;73.17;99808.02;107832;1257;71470;-67
2023/11/16 10:29:31;;;;;;;1.50;0.80;;;;;;;6.22;73.45;99808.27;107749;1257;61356;-68
2023/11/16 10:32:03;;;;;;;1.40;0.80;;;;;;;6.20;73.84;99807.35;107836;1257;60392;-67
2023/11/16 10:34:36;;;;;;;1.30;0.90;;;;;;;6.16;73.48;99805.97;107802;1259;72659;-68
2023/11/16 10:37:04;;;;;;;1.40;0.90;;;;;;;6.14;73.74;99809.81;107754;1257;71408;-66
2023/11/16 10:39:32;;;;;;;1.30;0.70;;;;;;;6.13;74.02;99811.35;107700;1258;72848;-69
2023/11/16 10:42:01;;;;;;;1.30;0.60;;;;;;;6.11;74.08;99811.90;107656;1257;60489;-68
2023/11/16 10:44:29;;;;;;;1.90;0.80;;;;;;;6.04;74.48;99817.64;107923;1257;59945;-67
2023/11/16 10:46:58;;;;;;;1.10;0.80;;;;;;;5.97;74.85;99817.98;107847;1257;72775;-67
2023/11/16 10:49:27;;;;;;;2.30;1.00;;;;;;;5.92;75.45;99816.38;107713;1257;72752;-68
2023/11/16 10:51:56;;;;;;;1.70;1.00;;;;;;;5.91;76.35;99821.25;107661;1260;73584;-68
2023/11/16 10:54:25;;;;;;;1.80;1.00;;;;;;;5.89;76.91;99816.14;107613;1260;60399;-68
2023/11/16 10:56:54;;;;;;;1.60;1.00;;;;;;;5.86;77.20;99819.48;107606;1257;60403;-67
2023/11/16 10:59:23;;;;;;;2.40;1.20;;;;;;;5.87;77.71;99821.42;107765;1258;73032;-70
2023/11/16 11:01:51;;;;;;;2.30;1.20;;;;;;;5.87;78.08;99830.11;107663;1257;72973;-68
2023/11/16 11:04:19;;;;;;;2.20;1.00;;;;;;;5.85;78.34;99841.21;107714;1261;72699;-67
2023/11/16 11:06:49;;;;;;;2.70;1.30;;;;;;;5.81;78.30;99830.77;107711;1258;60965;-68
2023/11/16 11:09:17;;;;;;;1.90;1.10;;;;;;;5.79;78.81;99832.07;107718;1263;62168;-67
2023/11/16 11:11:47;;;;;;;2.70;1.10;;;;;;;5.79;78.96;99842.03;107747;1258;72891;-69
2023/11/16 11:14:23;;;;;;;2.40;0.90;;;;;;;5.79;78.85;99842.06;107702;1261;71669;-66
2023/11/16 11:16:51;;;;;;;1.30;0.80;;;;;;;5.77;78.60;99837.05;107709;1262;72879;-67
2023/11/16 11:19:31;;;;;;;1.40;0.80;;;;;;;5.76;78.82;99839.70;107742;1257;60844;-67
2023/11/16 11:22:02;;;;;;;1.80;0.90;;;;;;;5.75;78.54;99838.14;107657;1257;60329;-68
2023/11/16 11:24:30;;;;;;;2.00;0.90;;;;;;;5.72;78.28;99837.63;107692;1257;73796;-68
2023/11/16 11:26:57;;;;;;;2.10;0.90;;;;;;;5.70;78.55;99843.27;107676;1259;72504;-67
2023/11/16 11:29:25;;;;;;;2.00;1.00;;;;;;;5.69;78.49;99851.98;107690;1257;72736;-67
2023/11/16 11:32:02;;;;;;;1.90;0.80;;;;;;;5.66;78.22;99848.50;107663;1257;61168;-66
2023/11/16 11:34:36;;;;;;;3.00;1.20;;;;;;;5.62;77.99;99848.11;107764;1257;60485;-67
2023/11/16 11:37:10;;;;;;;4.10;1.10;;;;;;;5.59;78.24;99847.88;107696;1257;76113;-65
2023/11/16 11:39:45;;;;;;;3.40;1.20;;;;;;;5.60;78.82;99848.13;107728;1257;74195;-68
2023/11/16 11:42:16;;;;;;;3.20;0.90;;;;;;;5.62;79.05;99852.30;107778;1262;71423;-67
2023/11/16 11:44:51;;;;;;;3.80;1.00;;;;;;;5.63;79.02;99855.66;107715;1257;61277;-68
2023/11/16 11:47:20;;;;;;;1.90;1.00;;;;;;;5.64;78.93;99857.85;107744;1257;60412;-68
2023/11/16 11:49:48;;;;;;;2.70;1.40;;;;;;;5.65;79.20;99860.39;107715;1257;73645;-67
2023/11/16 11:52:16;;;;;;;2.00;1.00;;;;;;;5.64;79.62;99866.86;107529;1260;72810;-66